sensor_id;sensor_type;location;lat;lon;timestamp;P1;durP1;ratioP1;P2;durP2;ratioP2
63157;SDS011;49381;49.338;8.794;2022-12-28T00:01:06;15.30;;;8.93;;
63157;SDS011;49381;49.338;8.794;2022-12-28T00:03:07;17.95;;;8.38;;
63157;SDS011;49381;49.338;8.794;2022-12-28T00:05:07;17.80;;;9.93;;
63157;SDS011;49381;49.338;8.794;2022-12-28T00:07:08;18.52;;;8.85;;
63157;SDS011;49381;49.338;8.794;2022-12-28T00:09:09;16.67;;;9.60;;
63157;SDS011;49381;49.338;8.794;2022-12-28T00:11:11;16.77;;;10.52;;
63157;SDS011;49381;49.338;8.794;2022-12-28T00:13:13;16.17;;;9.30;;
63157;SDS011;49381;49.338;8.794;2022-12-28T00:15:14;17.80;;;9.63;;
63157;SDS011;49381;49.338;8.794;2022-12-28T00:17:14;15.70;;;8.50;;
63157;SDS011;49381;49.338;8.794;2022-12-28T00:19:15;16.65;;;8.73;;
63157;SDS011;49381;49.338;8.794;2022-12-28T00:21:16;16.42;;;8.07;;
63157;SDS011;49381;49.338;8.794;2022-12-28T00:23:16;13.50;;;7.90;;
63157;SDS011;49381;49.338;8.794;2022-12-28T00:25:16;12.80;;;8.00;;
63157;SDS011;49381;49.338;8.794;2022-12-28T00:27:17;13.48;;;7.35;;
63157;SDS011;49381;49.338;8.794;2022-12-28T00:29:18;16.43;;;8.40;;
63157;SDS011;49381;49.338;8.794;2022-12-28T00:31:19;12.35;;;7.78;;
63157;SDS011;49381;49.338;8.794;2022-12-28T00:33:19;13.65;;;7.55;;
63157;SDS011;49381;49.338;8.794;2022-12-28T00:35:19;15.93;;;8.38;;
63157;SDS011;49381;49.338;8.794;2022-12-28T00:37:20;12.40;;;7.90;;
63157;SDS011;49381;49.338;8.794;2022-12-28T00:39:20;12.32;;;7.20;;
63157;SDS011;49381;49.338;8.794;2022-12-28T00:41:21;15.32;;;9.13;;
63157;SDS011;49381;49.338;8.794;2022-12-28T00:43:21;12.73;;;8.18;;
63157;SDS011;49381;49.338;8.794;2022-12-28T00:45:23;14.30;;;7.97;;
63157;SDS011;49381;49.338;8.794;2022-12-28T00:47:23;11.55;;;7.43;;
63157;SDS011;49381;49.338;8.794;2022-12-28T00:49:23;12.83;;;8.10;;
63157;SDS011;49381;49.338;8.794;2022-12-28T00:51:24;13.43;;;7.53;;
63157;SDS011;49381;49.338;8.794;2022-12-28T00:53:24;10.80;;;6.18;;
63157;SDS011;49381;49.338;8.794;2022-12-28T00:55:24;10.07;;;7.10;;
63157;SDS011;49381;49.338;8.794;2022-12-28T00:57:25;12.60;;;7.40;;
63157;SDS011;49381;49.338;8.794;2022-12-28T00:59:25;9.85;;;7.07;;
63157;SDS011;49381;49.338;8.794;2022-12-28T01:01:28;12.90;;;7.43;;
63157;SDS011;49381;49.338;8.794;2022-12-28T01:03:28;10.65;;;6.55;;
63157;SDS011;49381;49.338;8.794;2022-12-28T01:05:29;13.10;;;7.40;;
63157;SDS011;49381;49.338;8.794;2022-12-28T01:07:29;12.07;;;6.90;;
63157;SDS011;49381;49.338;8.794;2022-12-28T01:09:29;13.23;;;7.68;;
63157;SDS011;49381;49.338;8.794;2022-12-28T01:11:30;14.60;;;8.15;;
63157;SDS011;49381;49.338;8.794;2022-12-28T01:13:30;13.38;;;7.50;;
63157;SDS011;49381;49.338;8.794;2022-12-28T01:15:31;10.10;;;7.43;;
63157;SDS011;49381;49.338;8.794;2022-12-28T01:17:32;12.57;;;6.95;;
63157;SDS011;49381;49.338;8.794;2022-12-28T01:19:33;13.68;;;7.88;;
63157;SDS011;49381;49.338;8.794;2022-12-28T01:21:34;12.45;;;7.80;;
63157;SDS011;49381;49.338;8.794;2022-12-28T01:23:34;11.98;;;7.97;;
63157;SDS011;49381;49.338;8.794;2022-12-28T01:25:35;10.88;;;6.97;;
63157;SDS011;49381;49.338;8.794;2022-12-28T01:27:35;14.37;;;7.77;;
63157;SDS011;49381;49.338;8.794;2022-12-28T01:29:35;11.50;;;6.63;;
63157;SDS011;49381;49.338;8.794;2022-12-28T01:31:35;10.80;;;8.05;;
63157;SDS011;49381;49.338;8.794;2022-12-28T01:33:37;12.85;;;7.40;;
63157;SDS011;49381;49.338;8.794;2022-12-28T01:35:38;10.90;;;6.65;;
63157;SDS011;49381;49.338;8.794;2022-12-28T01:37:38;12.97;;;6.90;;
63157;SDS011;49381;49.338;8.794;2022-12-28T01:39:38;12.60;;;6.88;;
63157;SDS011;49381;49.338;8.794;2022-12-28T01:41:39;11.55;;;6.88;;
63157;SDS011;49381;49.338;8.794;2022-12-28T01:43:41;11.13;;;7.20;;
63157;SDS011;49381;49.338;8.794;2022-12-28T01:45:42;10.25;;;7.28;;
63157;SDS011;49381;49.338;8.794;2022-12-28T01:47:50;12.30;;;7.70;;
63157;SDS011;49381;49.338;8.794;2022-12-28T01:49:58;14.93;;;7.13;;
63157;SDS011;49381;49.338;8.794;2022-12-28T01:52:02;12.02;;;7.60;;
63157;SDS011;49381;49.338;8.794;2022-12-28T01:54:05;13.65;;;8.32;;
63157;SDS011;49381;49.338;8.794;2022-12-28T01:56:06;11.52;;;7.93;;
63157;SDS011;49381;49.338;8.794;2022-12-28T01:58:07;9.80;;;6.75;;
63157;SDS011;49381;49.338;8.794;2022-12-28T02:00:11;13.70;;;7.82;;
63157;SDS011;49381;49.338;8.794;2022-12-28T02:02:14;10.05;;;7.35;;
63157;SDS011;49381;49.338;8.794;2022-12-28T02:04:14;9.65;;;7.30;;
63157;SDS011;49381;49.338;8.794;2022-12-28T02:06:16;9.13;;;6.25;;
63157;SDS011;49381;49.338;8.794;2022-12-28T02:08:17;10.60;;;6.95;;
63157;SDS011;49381;49.338;8.794;2022-12-28T02:10:21;10.18;;;7.32;;
63157;SDS011;49381;49.338;8.794;2022-12-28T02:12:23;10.60;;;6.22;;
63157;SDS011;49381;49.338;8.794;2022-12-28T02:14:23;11.75;;;6.45;;
63157;SDS011;49381;49.338;8.794;2022-12-28T02:16:24;9.57;;;6.22;;
63157;SDS011;49381;49.338;8.794;2022-12-28T02:18:24;10.27;;;6.45;;
63157;SDS011;49381;49.338;8.794;2022-12-28T02:20:28;11.27;;;6.30;;
63157;SDS011;49381;49.338;8.794;2022-12-28T02:27:41;10.30;;;6.80;;
63157;SDS011;49381;49.338;8.794;2022-12-28T02:29:54;9.20;;;5.82;;
63157;SDS011;49381;49.338;8.794;2022-12-28T02:32:03;12.32;;;6.95;;
63157;SDS011;49381;49.338;8.794;2022-12-28T02:34:12;10.63;;;6.22;;
63157;SDS011;49381;49.338;8.794;2022-12-28T02:36:16;14.85;;;7.25;;
63157;SDS011;49381;49.338;8.794;2022-12-28T02:38:22;10.55;;;6.28;;
63157;SDS011;49381;49.338;8.794;2022-12-28T02:40:28;10.52;;;6.45;;
63157;SDS011;49381;49.338;8.794;2022-12-28T02:42:32;11.57;;;7.00;;
63157;SDS011;49381;49.338;8.794;2022-12-28T02:44:35;16.05;;;6.88;;
63157;SDS011;49381;49.338;8.794;2022-12-28T02:46:36;13.82;;;7.05;;
63157;SDS011;49381;49.338;8.794;2022-12-28T02:48:37;11.85;;;7.45;;
63157;SDS011;49381;49.338;8.794;2022-12-28T02:50:42;14.48;;;7.65;;
63157;SDS011;49381;49.338;8.794;2022-12-28T02:53:04;10.60;;;6.82;;
63157;SDS011;49381;49.338;8.794;2022-12-28T02:55:27;9.15;;;6.05;;
63157;SDS011;49381;49.338;8.794;2022-12-28T02:57:41;12.10;;;6.53;;
63157;SDS011;49381;49.338;8.794;2022-12-28T02:59:58;11.60;;;6.78;;
63157;SDS011;49381;49.338;8.794;2022-12-28T03:02:11;12.20;;;7.10;;
63157;SDS011;49381;49.338;8.794;2022-12-28T03:04:22;13.52;;;6.60;;
63157;SDS011;49381;49.338;8.794;2022-12-28T03:06:32;14.63;;;7.70;;
63157;SDS011;49381;49.338;8.794;2022-12-28T03:08:42;14.07;;;7.43;;
63157;SDS011;49381;49.338;8.794;2022-12-28T03:10:54;14.60;;;6.93;;
63157;SDS011;49381;49.338;8.794;2022-12-28T03:13:02;12.63;;;7.72;;
63157;SDS011;49381;49.338;8.794;2022-12-28T03:15:07;13.77;;;7.22;;
63157;SDS011;49381;49.338;8.794;2022-12-28T03:17:13;14.13;;;7.30;;
63157;SDS011;49381;49.338;8.794;2022-12-28T03:19:14;12.35;;;7.78;;
63157;SDS011;49381;49.338;8.794;2022-12-28T03:21:15;12.95;;;6.43;;
63157;SDS011;49381;49.338;8.794;2022-12-28T03:23:16;11.63;;;6.70;;
63157;SDS011;49381;49.338;8.794;2022-12-28T03:25:20;10.55;;;7.25;;
63157;SDS011;49381;49.338;8.794;2022-12-28T03:27:22;10.70;;;6.97;;
63157;SDS011;49381;49.338;8.794;2022-12-28T03:29:22;12.35;;;6.10;;
63157;SDS011;49381;49.338;8.794;2022-12-28T03:31:24;12.77;;;6.80;;
63157;SDS011;49381;49.338;8.794;2022-12-28T03:33:29;13.13;;;6.68;;
63157;SDS011;49381;49.338;8.794;2022-12-28T03:35:30;12.50;;;7.18;;
63157;SDS011;49381;49.338;8.794;2022-12-28T03:37:40;14.20;;;7.65;;
63157;SDS011;49381;49.338;8.794;2022-12-28T03:39:46;12.80;;;7.38;;
63157;SDS011;49381;49.338;8.794;2022-12-28T03:41:53;15.25;;;6.72;;
63157;SDS011;49381;49.338;8.794;2022-12-28T03:43:56;10.25;;;6.93;;
63157;SDS011;49381;49.338;8.794;2022-12-28T03:46:03;12.45;;;7.13;;
63157;SDS011;49381;49.338;8.794;2022-12-28T03:48:08;13.20;;;8.05;;
63157;SDS011;49381;49.338;8.794;2022-12-28T03:50:11;13.55;;;7.07;;
63157;SDS011;49381;49.338;8.794;2022-12-28T03:52:12;10.73;;;6.32;;
63157;SDS011;49381;49.338;8.794;2022-12-28T03:54:13;12.65;;;6.95;;
63157;SDS011;49381;49.338;8.794;2022-12-28T03:56:14;9.63;;;6.55;;
63157;SDS011;49381;49.338;8.794;2022-12-28T03:58:16;12.98;;;6.82;;
63157;SDS011;49381;49.338;8.794;2022-12-28T04:00:17;12.38;;;6.55;;
63157;SDS011;49381;49.338;8.794;2022-12-28T04:02:18;10.30;;;6.28;;
63157;SDS011;49381;49.338;8.794;2022-12-28T04:04:18;13.73;;;6.60;;
63157;SDS011;49381;49.338;8.794;2022-12-28T04:06:20;9.90;;;5.90;;
63157;SDS011;49381;49.338;8.794;2022-12-28T04:08:20;10.95;;;6.90;;
63157;SDS011;49381;49.338;8.794;2022-12-28T04:10:20;10.70;;;7.00;;
63157;SDS011;49381;49.338;8.794;2022-12-28T04:12:21;10.55;;;6.25;;
63157;SDS011;49381;49.338;8.794;2022-12-28T04:14:22;9.20;;;6.05;;
63157;SDS011;49381;49.338;8.794;2022-12-28T04:16:22;10.80;;;6.25;;
63157;SDS011;49381;49.338;8.794;2022-12-28T04:18:22;12.18;;;6.50;;
63157;SDS011;49381;49.338;8.794;2022-12-28T04:20:23;10.95;;;6.28;;
63157;SDS011;49381;49.338;8.794;2022-12-28T04:22:25;10.70;;;6.68;;
63157;SDS011;49381;49.338;8.794;2022-12-28T04:24:25;9.13;;;5.82;;
63157;SDS011;49381;49.338;8.794;2022-12-28T04:26:25;10.30;;;6.50;;
63157;SDS011;49381;49.338;8.794;2022-12-28T04:28:26;12.40;;;7.47;;
63157;SDS011;49381;49.338;8.794;2022-12-28T04:30:26;9.77;;;6.60;;
63157;SDS011;49381;49.338;8.794;2022-12-28T04:32:27;11.53;;;6.77;;
63157;SDS011;49381;49.338;8.794;2022-12-28T04:34:27;12.02;;;6.78;;
63157;SDS011;49381;49.338;8.794;2022-12-28T04:36:28;10.48;;;5.70;;
63157;SDS011;49381;49.338;8.794;2022-12-28T04:38:29;11.90;;;7.43;;
63157;SDS011;49381;49.338;8.794;2022-12-28T04:40:30;13.70;;;7.38;;
63157;SDS011;49381;49.338;8.794;2022-12-28T04:42:30;12.50;;;7.07;;
63157;SDS011;49381;49.338;8.794;2022-12-28T04:44:30;14.07;;;7.35;;
63157;SDS011;49381;49.338;8.794;2022-12-28T04:46:31;12.00;;;6.97;;
63157;SDS011;49381;49.338;8.794;2022-12-28T04:48:32;15.40;;;7.35;;
63157;SDS011;49381;49.338;8.794;2022-12-28T04:50:33;13.57;;;7.88;;
63157;SDS011;49381;49.338;8.794;2022-12-28T04:52:35;16.15;;;10.63;;
63157;SDS011;49381;49.338;8.794;2022-12-28T04:54:36;15.40;;;10.20;;
63157;SDS011;49381;49.338;8.794;2022-12-28T04:56:37;18.85;;;11.00;;
63157;SDS011;49381;49.338;8.794;2022-12-28T04:58:37;13.68;;;8.30;;
63157;SDS011;49381;49.338;8.794;2022-12-28T05:00:38;12.63;;;8.18;;
63157;SDS011;49381;49.338;8.794;2022-12-28T05:02:39;15.93;;;9.63;;
63157;SDS011;49381;49.338;8.794;2022-12-28T05:04:39;17.20;;;8.40;;
63157;SDS011;49381;49.338;8.794;2022-12-28T05:06:39;12.02;;;8.30;;
63157;SDS011;49381;49.338;8.794;2022-12-28T05:08:40;11.60;;;7.22;;
63157;SDS011;49381;49.338;8.794;2022-12-28T05:10:42;10.05;;;6.95;;
63157;SDS011;49381;49.338;8.794;2022-12-28T05:12:42;11.73;;;6.68;;
63157;SDS011;49381;49.338;8.794;2022-12-28T05:14:42;11.25;;;6.72;;
63157;SDS011;49381;49.338;8.794;2022-12-28T05:16:43;12.25;;;6.53;;
63157;SDS011;49381;49.338;8.794;2022-12-28T05:18:43;12.43;;;7.47;;
63157;SDS011;49381;49.338;8.794;2022-12-28T05:20:44;11.73;;;6.25;;
63157;SDS011;49381;49.338;8.794;2022-12-28T05:22:44;14.70;;;7.00;;
63157;SDS011;49381;49.338;8.794;2022-12-28T05:24:44;13.37;;;6.97;;
63157;SDS011;49381;49.338;8.794;2022-12-28T05:26:46;12.20;;;7.03;;
63157;SDS011;49381;49.338;8.794;2022-12-28T05:28:46;12.70;;;7.38;;
63157;SDS011;49381;49.338;8.794;2022-12-28T05:30:47;12.25;;;8.57;;
63157;SDS011;49381;49.338;8.794;2022-12-28T05:32:47;14.95;;;7.97;;
63157;SDS011;49381;49.338;8.794;2022-12-28T05:34:47;13.65;;;8.40;;
63157;SDS011;49381;49.338;8.794;2022-12-28T05:36:48;16.73;;;9.80;;
63157;SDS011;49381;49.338;8.794;2022-12-28T05:38:48;15.95;;;8.73;;
63157;SDS011;49381;49.338;8.794;2022-12-28T05:40:49;18.20;;;9.55;;
63157;SDS011;49381;49.338;8.794;2022-12-28T05:42:51;17.50;;;9.40;;
63157;SDS011;49381;49.338;8.794;2022-12-28T05:44:51;18.83;;;10.57;;
63157;SDS011;49381;49.338;8.794;2022-12-28T05:46:52;15.63;;;9.98;;
63157;SDS011;49381;49.338;8.794;2022-12-28T05:48:52;15.32;;;8.75;;
63157;SDS011;49381;49.338;8.794;2022-12-28T05:50:53;10.45;;;8.45;;
63157;SDS011;49381;49.338;8.794;2022-12-28T05:52:53;13.98;;;8.48;;
63157;SDS011;49381;49.338;8.794;2022-12-28T05:54:53;11.30;;;6.95;;
63157;SDS011;49381;49.338;8.794;2022-12-28T05:56:54;12.25;;;6.95;;
63157;SDS011;49381;49.338;8.794;2022-12-28T05:58:56;11.73;;;8.70;;
63157;SDS011;49381;49.338;8.794;2022-12-28T06:01:05;15.88;;;7.57;;
63157;SDS011;49381;49.338;8.794;2022-12-28T06:03:06;12.82;;;7.80;;
63157;SDS011;49381;49.338;8.794;2022-12-28T06:05:07;10.88;;;6.78;;
63157;SDS011;49381;49.338;8.794;2022-12-28T06:07:07;13.15;;;8.00;;
63157;SDS011;49381;49.338;8.794;2022-12-28T06:09:08;11.00;;;6.97;;
63157;SDS011;49381;49.338;8.794;2022-12-28T06:11:10;11.57;;;6.57;;
63157;SDS011;49381;49.338;8.794;2022-12-28T06:13:11;10.27;;;6.60;;
63157;SDS011;49381;49.338;8.794;2022-12-28T06:15:13;13.50;;;7.35;;
63157;SDS011;49381;49.338;8.794;2022-12-28T06:17:13;14.45;;;7.35;;
63157;SDS011;49381;49.338;8.794;2022-12-28T06:19:14;12.48;;;7.40;;
63157;SDS011;49381;49.338;8.794;2022-12-28T06:21:16;15.07;;;7.85;;
63157;SDS011;49381;49.338;8.794;2022-12-28T06:23:18;12.38;;;7.45;;
63157;SDS011;49381;49.338;8.794;2022-12-28T06:25:18;10.90;;;7.32;;
63157;SDS011;49381;49.338;8.794;2022-12-28T06:27:18;14.50;;;7.65;;
63157;SDS011;49381;49.338;8.794;2022-12-28T06:29:19;12.60;;;7.18;;
63157;SDS011;49381;49.338;8.794;2022-12-28T06:31:21;12.00;;;7.35;;
63157;SDS011;49381;49.338;8.794;2022-12-28T06:33:22;13.52;;;7.53;;
63157;SDS011;49381;49.338;8.794;2022-12-28T06:35:23;13.30;;;8.05;;
63157;SDS011;49381;49.338;8.794;2022-12-28T06:37:23;10.65;;;6.95;;
63157;SDS011;49381;49.338;8.794;2022-12-28T06:39:23;14.48;;;8.32;;
63157;SDS011;49381;49.338;8.794;2022-12-28T06:41:24;12.90;;;8.02;;
63157;SDS011;49381;49.338;8.794;2022-12-28T06:43:29;15.65;;;9.00;;
63157;SDS011;49381;49.338;8.794;2022-12-28T06:45:30;16.27;;;9.63;;
63157;SDS011;49381;49.338;8.794;2022-12-28T06:47:31;19.67;;;10.45;;
63157;SDS011;49381;49.338;8.794;2022-12-28T06:49:32;17.45;;;9.52;;
63157;SDS011;49381;49.338;8.794;2022-12-28T06:51:33;17.90;;;10.60;;
63157;SDS011;49381;49.338;8.794;2022-12-28T06:53:35;22.83;;;10.30;;
63157;SDS011;49381;49.338;8.794;2022-12-28T06:55:36;23.38;;;11.13;;
63157;SDS011;49381;49.338;8.794;2022-12-28T06:57:36;25.13;;;11.57;;
63157;SDS011;49381;49.338;8.794;2022-12-28T06:59:36;20.92;;;11.75;;
63157;SDS011;49381;49.338;8.794;2022-12-28T07:01:37;14.48;;;9.02;;
63157;SDS011;49381;49.338;8.794;2022-12-28T07:03:40;16.77;;;9.38;;
63157;SDS011;49381;49.338;8.794;2022-12-28T07:05:41;14.75;;;8.40;;
63157;SDS011;49381;49.338;8.794;2022-12-28T07:07:43;13.32;;;8.23;;
63157;SDS011;49381;49.338;8.794;2022-12-28T07:09:44;15.95;;;8.93;;
63157;SDS011;49381;49.338;8.794;2022-12-28T07:11:44;13.93;;;8.88;;
63157;SDS011;49381;49.338;8.794;2022-12-28T07:13:45;12.65;;;8.30;;
63157;SDS011;49381;49.338;8.794;2022-12-28T07:15:45;12.38;;;7.82;;
63157;SDS011;49381;49.338;8.794;2022-12-28T07:17:46;14.23;;;7.40;;
63157;SDS011;49381;49.338;8.794;2022-12-28T07:19:47;14.18;;;7.72;;
63157;SDS011;49381;49.338;8.794;2022-12-28T07:21:48;15.20;;;7.03;;
63157;SDS011;49381;49.338;8.794;2022-12-28T07:23:49;14.38;;;8.32;;
63157;SDS011;49381;49.338;8.794;2022-12-28T07:25:50;13.55;;;7.85;;
63157;SDS011;49381;49.338;8.794;2022-12-28T07:27:50;16.10;;;8.97;;
63157;SDS011;49381;49.338;8.794;2022-12-28T07:29:50;14.75;;;8.02;;
63157;SDS011;49381;49.338;8.794;2022-12-28T07:31:51;15.68;;;9.43;;
63157;SDS011;49381;49.338;8.794;2022-12-28T07:33:51;14.27;;;9.40;;
63157;SDS011;49381;49.338;8.794;2022-12-28T07:35:54;17.27;;;9.20;;
63157;SDS011;49381;49.338;8.794;2022-12-28T07:37:57;16.98;;;11.02;;
63157;SDS011;49381;49.338;8.794;2022-12-28T07:39:57;14.05;;;10.15;;
63157;SDS011;49381;49.338;8.794;2022-12-28T07:41:57;11.98;;;8.95;;
63157;SDS011;49381;49.338;8.794;2022-12-28T07:43:58;12.00;;;8.80;;
63157;SDS011;49381;49.338;8.794;2022-12-28T07:45:59;19.05;;;9.45;;
63157;SDS011;49381;49.338;8.794;2022-12-28T07:48:00;14.30;;;8.63;;
63157;SDS011;49381;49.338;8.794;2022-12-28T07:50:01;14.13;;;8.30;;
63157;SDS011;49381;49.338;8.794;2022-12-28T07:52:02;13.73;;;8.30;;
63157;SDS011;49381;49.338;8.794;2022-12-28T07:54:03;13.27;;;8.27;;
63157;SDS011;49381;49.338;8.794;2022-12-28T07:56:04;11.73;;;7.30;;
63157;SDS011;49381;49.338;8.794;2022-12-28T07:58:05;11.88;;;7.13;;
63157;SDS011;49381;49.338;8.794;2022-12-28T08:00:06;13.55;;;7.60;;
63157;SDS011;49381;49.338;8.794;2022-12-28T08:02:07;14.65;;;7.50;;
63157;SDS011;49381;49.338;8.794;2022-12-28T08:04:10;12.00;;;7.78;;
63157;SDS011;49381;49.338;8.794;2022-12-28T08:06:12;15.15;;;7.78;;
63157;SDS011;49381;49.338;8.794;2022-12-28T08:08:16;13.25;;;8.57;;
63157;SDS011;49381;49.338;8.794;2022-12-28T08:10:16;18.65;;;10.85;;
63157;SDS011;49381;49.338;8.794;2022-12-28T08:12:17;19.23;;;11.70;;
63157;SDS011;49381;49.338;8.794;2022-12-28T08:14:17;17.65;;;11.38;;
63157;SDS011;49381;49.338;8.794;2022-12-28T08:16:18;18.02;;;10.93;;
63157;SDS011;49381;49.338;8.794;2022-12-28T08:18:19;20.60;;;11.00;;
63157;SDS011;49381;49.338;8.794;2022-12-28T08:20:20;16.45;;;10.35;;
63157;SDS011;49381;49.338;8.794;2022-12-28T08:22:21;16.08;;;9.00;;
63157;SDS011;49381;49.338;8.794;2022-12-28T08:24:23;16.05;;;9.70;;
63157;SDS011;49381;49.338;8.794;2022-12-28T08:26:26;17.42;;;9.63;;
63157;SDS011;49381;49.338;8.794;2022-12-28T08:28:30;16.88;;;8.88;;
63157;SDS011;49381;49.338;8.794;2022-12-28T08:30:31;29.30;;;9.98;;
63157;SDS011;49381;49.338;8.794;2022-12-28T08:32:31;21.75;;;12.63;;
63157;SDS011;49381;49.338;8.794;2022-12-28T08:34:32;17.10;;;9.45;;
63157;SDS011;49381;49.338;8.794;2022-12-28T08:36:32;12.98;;;7.90;;
63157;SDS011;49381;49.338;8.794;2022-12-28T08:38:33;18.67;;;9.20;;
63157;SDS011;49381;49.338;8.794;2022-12-28T08:40:36;14.50;;;8.65;;
63157;SDS011;49381;49.338;8.794;2022-12-28T08:42:36;16.85;;;8.75;;
63157;SDS011;49381;49.338;8.794;2022-12-28T08:44:36;13.93;;;8.40;;
63157;SDS011;49381;49.338;8.794;2022-12-28T08:46:37;15.95;;;9.27;;
63157;SDS011;49381;49.338;8.794;2022-12-28T08:48:37;16.08;;;8.70;;
63157;SDS011;49381;49.338;8.794;2022-12-28T08:50:37;14.98;;;9.93;;
63157;SDS011;49381;49.338;8.794;2022-12-28T08:52:38;14.05;;;8.45;;
63157;SDS011;49381;49.338;8.794;2022-12-28T08:54:38;13.75;;;8.98;;
63157;SDS011;49381;49.338;8.794;2022-12-28T08:56:40;13.95;;;7.95;;
63157;SDS011;49381;49.338;8.794;2022-12-28T08:58:42;11.10;;;6.90;;
63157;SDS011;49381;49.338;8.794;2022-12-28T09:00:43;16.00;;;10.90;;
63157;SDS011;49381;49.338;8.794;2022-12-28T09:02:44;18.98;;;10.82;;
63157;SDS011;49381;49.338;8.794;2022-12-28T09:04:44;13.70;;;8.57;;
63157;SDS011;49381;49.338;8.794;2022-12-28T09:06:45;14.13;;;8.07;;
63157;SDS011;49381;49.338;8.794;2022-12-28T09:08:47;15.40;;;8.35;;
63157;SDS011;49381;49.338;8.794;2022-12-28T09:10:48;13.30;;;8.27;;
63157;SDS011;49381;49.338;8.794;2022-12-28T09:12:50;18.27;;;8.77;;
63157;SDS011;49381;49.338;8.794;2022-12-28T09:14:50;11.75;;;7.70;;
63157;SDS011;49381;49.338;8.794;2022-12-28T09:16:51;13.45;;;8.60;;
63157;SDS011;49381;49.338;8.794;2022-12-28T09:18:52;13.98;;;7.78;;
63157;SDS011;49381;49.338;8.794;2022-12-28T09:20:53;11.88;;;7.95;;
63157;SDS011;49381;49.338;8.794;2022-12-28T09:22:54;14.25;;;8.43;;
63157;SDS011;49381;49.338;8.794;2022-12-28T09:24:54;12.48;;;8.15;;
63157;SDS011;49381;49.338;8.794;2022-12-28T09:26:55;12.93;;;7.93;;
63157;SDS011;49381;49.338;8.794;2022-12-28T09:28:57;11.98;;;8.48;;
63157;SDS011;49381;49.338;8.794;2022-12-28T09:31:00;11.75;;;6.55;;
63157;SDS011;49381;49.338;8.794;2022-12-28T09:33:01;11.32;;;6.80;;
63157;SDS011;49381;49.338;8.794;2022-12-28T09:35:02;13.48;;;7.45;;
63157;SDS011;49381;49.338;8.794;2022-12-28T09:37:02;16.02;;;9.20;;
63157;SDS011;49381;49.338;8.794;2022-12-28T09:39:03;13.48;;;8.55;;
63157;SDS011;49381;49.338;8.794;2022-12-28T09:41:09;13.75;;;8.82;;
63157;SDS011;49381;49.338;8.794;2022-12-28T09:43:10;12.48;;;8.40;;
63157;SDS011;49381;49.338;8.794;2022-12-28T09:45:13;11.45;;;7.45;;
63157;SDS011;49381;49.338;8.794;2022-12-28T09:47:20;16.08;;;10.68;;
63157;SDS011;49381;49.338;8.794;2022-12-28T09:49:26;16.27;;;10.55;;
63157;SDS011;49381;49.338;8.794;2022-12-28T09:51:36;14.05;;;8.85;;
63157;SDS011;49381;49.338;8.794;2022-12-28T09:53:39;12.27;;;8.15;;
63157;SDS011;49381;49.338;8.794;2022-12-28T09:55:40;15.68;;;9.77;;
63157;SDS011;49381;49.338;8.794;2022-12-28T09:57:45;15.30;;;9.63;;
63157;SDS011;49381;49.338;8.794;2022-12-28T09:59:47;14.15;;;8.38;;
63157;SDS011;49381;49.338;8.794;2022-12-28T10:01:51;17.88;;;9.93;;
63157;SDS011;49381;49.338;8.794;2022-12-28T10:03:54;15.63;;;9.77;;
63157;SDS011;49381;49.338;8.794;2022-12-28T10:05:56;14.23;;;9.35;;
63157;SDS011;49381;49.338;8.794;2022-12-28T10:07:57;13.07;;;9.30;;
63157;SDS011;49381;49.338;8.794;2022-12-28T10:09:58;13.45;;;8.52;;
63157;SDS011;49381;49.338;8.794;2022-12-28T10:11:58;14.30;;;9.57;;
63157;SDS011;49381;49.338;8.794;2022-12-28T10:14:15;13.40;;;8.75;;
63157;SDS011;49381;49.338;8.794;2022-12-28T10:16:18;13.90;;;9.45;;
63157;SDS011;49381;49.338;8.794;2022-12-28T10:18:22;14.80;;;9.00;;
63157;SDS011;49381;49.338;8.794;2022-12-28T10:20:23;11.77;;;7.70;;
63157;SDS011;49381;49.338;8.794;2022-12-28T10:22:24;14.73;;;8.57;;
63157;SDS011;49381;49.338;8.794;2022-12-28T10:24:27;14.70;;;7.82;;
63157;SDS011;49381;49.338;8.794;2022-12-28T10:26:28;14.85;;;7.78;;
63157;SDS011;49381;49.338;8.794;2022-12-28T10:28:30;11.73;;;7.55;;
63157;SDS011;49381;49.338;8.794;2022-12-28T10:30:43;13.70;;;7.57;;
63157;SDS011;49381;49.338;8.794;2022-12-28T10:32:48;13.15;;;7.63;;
63157;SDS011;49381;49.338;8.794;2022-12-28T10:34:55;14.57;;;7.55;;
63157;SDS011;49381;49.338;8.794;2022-12-28T10:37:02;13.10;;;7.85;;
63157;SDS011;49381;49.338;8.794;2022-12-28T10:39:04;11.80;;;8.00;;
63157;SDS011;49381;49.338;8.794;2022-12-28T10:41:05;15.80;;;8.98;;
63157;SDS011;49381;49.338;8.794;2022-12-28T10:43:15;14.95;;;9.68;;
63157;SDS011;49381;49.338;8.794;2022-12-28T10:45:18;13.40;;;9.18;;
63157;SDS011;49381;49.338;8.794;2022-12-28T10:47:27;11.98;;;8.20;;
63157;SDS011;49381;49.338;8.794;2022-12-28T10:49:30;12.38;;;8.20;;
63157;SDS011;49381;49.338;8.794;2022-12-28T10:51:34;16.73;;;9.07;;
63157;SDS011;49381;49.338;8.794;2022-12-28T10:53:39;12.15;;;7.88;;
63157;SDS011;49381;49.338;8.794;2022-12-28T10:55:40;14.18;;;8.30;;
63157;SDS011;49381;49.338;8.794;2022-12-28T10:57:41;13.63;;;8.52;;
63157;SDS011;49381;49.338;8.794;2022-12-28T10:59:41;11.52;;;7.60;;
63157;SDS011;49381;49.338;8.794;2022-12-28T11:01:41;13.52;;;7.85;;
63157;SDS011;49381;49.338;8.794;2022-12-28T11:03:43;12.73;;;7.10;;
63157;SDS011;49381;49.338;8.794;2022-12-28T11:05:44;12.75;;;6.40;;
63157;SDS011;49381;49.338;8.794;2022-12-28T11:07:46;10.40;;;6.70;;
63157;SDS011;49381;49.338;8.794;2022-12-28T11:09:47;13.02;;;6.30;;
63157;SDS011;49381;49.338;8.794;2022-12-28T11:11:48;8.82;;;6.22;;
63157;SDS011;49381;49.338;8.794;2022-12-28T11:13:51;8.15;;;5.15;;
63157;SDS011;49381;49.338;8.794;2022-12-28T11:15:59;7.03;;;4.47;;
63157;SDS011;49381;49.338;8.794;2022-12-28T11:18:00;7.63;;;4.93;;
63157;SDS011;49381;49.338;8.794;2022-12-28T11:20:07;7.20;;;4.55;;
63157;SDS011;49381;49.338;8.794;2022-12-28T11:22:13;8.52;;;5.10;;
63157;SDS011;49381;49.338;8.794;2022-12-28T11:24:18;8.60;;;4.82;;
63157;SDS011;49381;49.338;8.794;2022-12-28T11:26:22;8.73;;;5.30;;
63157;SDS011;49381;49.338;8.794;2022-12-28T11:28:25;8.80;;;5.00;;
63157;SDS011;49381;49.338;8.794;2022-12-28T11:30:26;10.07;;;5.65;;
63157;SDS011;49381;49.338;8.794;2022-12-28T11:32:28;8.18;;;4.90;;
63157;SDS011;49381;49.338;8.794;2022-12-28T11:34:32;7.78;;;4.82;;
63157;SDS011;49381;49.338;8.794;2022-12-28T11:36:36;7.57;;;4.43;;
63157;SDS011;49381;49.338;8.794;2022-12-28T11:38:39;5.53;;;3.20;;
63157;SDS011;49381;49.338;8.794;2022-12-28T11:40:46;6.90;;;3.15;;
63157;SDS011;49381;49.338;8.794;2022-12-28T11:42:51;5.05;;;2.45;;
63157;SDS011;49381;49.338;8.794;2022-12-28T11:44:52;6.00;;;2.65;;
63157;SDS011;49381;49.338;8.794;2022-12-28T11:47:01;5.72;;;2.60;;
63157;SDS011;49381;49.338;8.794;2022-12-28T11:49:04;5.28;;;3.05;;
63157;SDS011;49381;49.338;8.794;2022-12-28T11:51:22;9.43;;;2.47;;
63157;SDS011;49381;49.338;8.794;2022-12-28T11:58:32;5.18;;;1.70;;
63157;SDS011;49381;49.338;8.794;2022-12-28T12:00:50;3.72;;;1.35;;
63157;SDS011;49381;49.338;8.794;2022-12-28T12:02:51;5.28;;;1.80;;
63157;SDS011;49381;49.338;8.794;2022-12-28T12:04:53;4.68;;;2.00;;
63157;SDS011;49381;49.338;8.794;2022-12-28T12:09:25;5.00;;;2.10;;
63157;SDS011;49381;49.338;8.794;2022-12-28T12:11:40;3.45;;;1.70;;
63157;SDS011;49381;49.338;8.794;2022-12-28T12:13:41;2.85;;;1.50;;
63157;SDS011;49381;49.338;8.794;2022-12-28T12:15:43;4.07;;;1.65;;
63157;SDS011;49381;49.338;8.794;2022-12-28T12:17:44;2.55;;;1.30;;
63157;SDS011;49381;49.338;8.794;2022-12-28T12:19:48;4.68;;;1.70;;